sensor_id;sensor_type;location;lat;lon;timestamp;P1;durP1;ratioP1;P2;durP2;ratioP2
13891;SDS011;7016;48.172;8.058;2022-12-07T00:01:09;17.42;;;12.98;;
13891;SDS011;7016;48.172;8.058;2022-12-07T00:03:43;20.73;;;12.13;;
13891;SDS011;7016;48.172;8.058;2022-12-07T00:06:11;18.27;;;12.77;;
13891;SDS011;7016;48.172;8.058;2022-12-07T00:08:38;20.88;;;13.77;;
13891;SDS011;7016;48.172;8.058;2022-12-07T00:13:32;20.42;;;13.77;;
13891;SDS011;7016;48.172;8.058;2022-12-07T00:16:02;20.35;;;13.38;;
13891;SDS011;7016;48.172;8.058;2022-12-07T00:18:39;19.20;;;13.25;;
13891;SDS011;7016;48.172;8.058;2022-12-07T00:21:08;22.55;;;13.52;;
13891;SDS011;7016;48.172;8.058;2022-12-07T00:23:36;21.55;;;14.02;;
13891;SDS011;7016;48.172;8.058;2022-12-07T00:26:03;20.08;;;13.25;;
13891;SDS011;7016;48.172;8.058;2022-12-07T00:28:33;21.05;;;13.43;;
13891;SDS011;7016;48.172;8.058;2022-12-07T00:31:09;19.25;;;13.85;;
13891;SDS011;7016;48.172;8.058;2022-12-07T00:33:36;19.58;;;13.93;;
13891;SDS011;7016;48.172;8.058;2022-12-07T00:36:06;22.05;;;15.15;;
13891;SDS011;7016;48.172;8.058;2022-12-07T00:38:34;22.70;;;14.63;;
13891;SDS011;7016;48.172;8.058;2022-12-07T00:41:02;22.77;;;14.80;;
13891;SDS011;7016;48.172;8.058;2022-12-07T00:43:29;23.35;;;14.88;;
13891;SDS011;7016;48.172;8.058;2022-12-07T00:45:55;22.80;;;15.40;;
13891;SDS011;7016;48.172;8.058;2022-12-07T00:48:21;24.27;;;15.70;;
13891;SDS011;7016;48.172;8.058;2022-12-07T00:50:48;24.17;;;15.65;;
13891;SDS011;7016;48.172;8.058;2022-12-07T00:53:14;22.58;;;14.88;;
13891;SDS011;7016;48.172;8.058;2022-12-07T00:55:42;23.20;;;14.95;;
13891;SDS011;7016;48.172;8.058;2022-12-07T00:58:08;22.77;;;15.38;;
13891;SDS011;7016;48.172;8.058;2022-12-07T01:00:37;22.98;;;15.13;;
13891;SDS011;7016;48.172;8.058;2022-12-07T01:03:05;21.77;;;14.82;;
13891;SDS011;7016;48.172;8.058;2022-12-07T01:05:32;22.50;;;14.98;;
13891;SDS011;7016;48.172;8.058;2022-12-07T01:07:57;22.50;;;14.45;;
13891;SDS011;7016;48.172;8.058;2022-12-07T01:10:23;23.83;;;15.30;;
13891;SDS011;7016;48.172;8.058;2022-12-07T01:12:49;27.30;;;15.50;;
13891;SDS011;7016;48.172;8.058;2022-12-07T01:15:15;25.23;;;15.30;;
13891;SDS011;7016;48.172;8.058;2022-12-07T01:17:41;25.70;;;15.93;;
13891;SDS011;7016;48.172;8.058;2022-12-07T01:20:07;26.70;;;15.98;;
13891;SDS011;7016;48.172;8.058;2022-12-07T01:22:40;23.88;;;15.57;;
13891;SDS011;7016;48.172;8.058;2022-12-07T01:25:06;23.45;;;15.38;;
13891;SDS011;7016;48.172;8.058;2022-12-07T01:27:33;23.42;;;15.10;;
13891;SDS011;7016;48.172;8.058;2022-12-07T01:30:00;23.30;;;15.00;;
13891;SDS011;7016;48.172;8.058;2022-12-07T01:32:26;21.77;;;14.77;;
13891;SDS011;7016;48.172;8.058;2022-12-07T01:34:52;22.42;;;14.30;;
13891;SDS011;7016;48.172;8.058;2022-12-07T01:37:18;25.77;;;15.20;;
13891;SDS011;7016;48.172;8.058;2022-12-07T01:39:43;22.13;;;14.45;;
13891;SDS011;7016;48.172;8.058;2022-12-07T01:42:12;21.58;;;14.50;;
13891;SDS011;7016;48.172;8.058;2022-12-07T01:47:42;24.45;;;15.32;;
13891;SDS011;7016;48.172;8.058;2022-12-07T01:50:11;22.13;;;14.95;;
13891;SDS011;7016;48.172;8.058;2022-12-07T01:52:38;23.40;;;13.80;;
13891;SDS011;7016;48.172;8.058;2022-12-07T01:55:06;20.70;;;14.52;;
13891;SDS011;7016;48.172;8.058;2022-12-07T01:57:34;21.33;;;14.23;;
13891;SDS011;7016;48.172;8.058;2022-12-07T02:00:05;19.85;;;13.88;;
13891;SDS011;7016;48.172;8.058;2022-12-07T02:02:36;19.95;;;13.93;;
13891;SDS011;7016;48.172;8.058;2022-12-07T02:05:06;25.33;;;14.88;;
13891;SDS011;7016;48.172;8.058;2022-12-07T02:07:32;25.70;;;16.52;;
13891;SDS011;7016;48.172;8.058;2022-12-07T02:10:23;25.08;;;15.73;;
13891;SDS011;7016;48.172;8.058;2022-12-07T02:12:50;25.42;;;15.68;;
13891;SDS011;7016;48.172;8.058;2022-12-07T02:15:20;27.75;;;16.67;;
13891;SDS011;7016;48.172;8.058;2022-12-07T02:20:37;25.20;;;15.52;;
13891;SDS011;7016;48.172;8.058;2022-12-07T02:28:35;27.42;;;16.30;;
13891;SDS011;7016;48.172;8.058;2022-12-07T02:31:06;26.35;;;16.13;;
13891;SDS011;7016;48.172;8.058;2022-12-07T02:33:40;25.30;;;14.82;;
13891;SDS011;7016;48.172;8.058;2022-12-07T02:36:32;24.83;;;15.95;;
13891;SDS011;7016;48.172;8.058;2022-12-07T02:39:18;29.60;;;17.45;;
13891;SDS011;7016;48.172;8.058;2022-12-07T02:41:57;28.67;;;15.85;;
13891;SDS011;7016;48.172;8.058;2022-12-07T02:44:51;25.00;;;15.70;;
13891;SDS011;7016;48.172;8.058;2022-12-07T02:47:17;27.40;;;16.30;;
13891;SDS011;7016;48.172;8.058;2022-12-07T02:49:45;26.65;;;16.20;;
13891;SDS011;7016;48.172;8.058;2022-12-07T02:52:11;28.48;;;16.88;;
13891;SDS011;7016;48.172;8.058;2022-12-07T02:54:37;27.42;;;16.23;;
13891;SDS011;7016;48.172;8.058;2022-12-07T03:16:25;28.63;;;16.52;;
13891;SDS011;7016;48.172;8.058;2022-12-07T03:18:55;27.02;;;16.42;;
13891;SDS011;7016;48.172;8.058;2022-12-07T03:21:25;25.33;;;16.17;;
13891;SDS011;7016;48.172;8.058;2022-12-07T03:23:55;26.27;;;16.25;;
13891;SDS011;7016;48.172;8.058;2022-12-07T03:26:27;26.80;;;16.52;;
13891;SDS011;7016;48.172;8.058;2022-12-07T03:29:04;29.45;;;16.52;;
13891;SDS011;7016;48.172;8.058;2022-12-07T03:31:35;30.92;;;17.13;;
13891;SDS011;7016;48.172;8.058;2022-12-07T03:36:40;26.42;;;14.75;;
13891;SDS011;7016;48.172;8.058;2022-12-07T03:42:06;21.00;;;13.48;;
13891;SDS011;7016;48.172;8.058;2022-12-07T03:44:33;17.90;;;12.35;;
13891;SDS011;7016;48.172;8.058;2022-12-07T03:47:01;17.20;;;12.05;;
13891;SDS011;7016;48.172;8.058;2022-12-07T03:49:50;21.80;;;12.32;;
13891;SDS011;7016;48.172;8.058;2022-12-07T03:52:38;16.05;;;11.40;;
13891;SDS011;7016;48.172;8.058;2022-12-07T03:55:08;16.73;;;11.23;;
13891;SDS011;7016;48.172;8.058;2022-12-07T03:57:35;16.13;;;11.13;;
13891;SDS011;7016;48.172;8.058;2022-12-07T04:00:04;20.30;;;11.50;;
13891;SDS011;7016;48.172;8.058;2022-12-07T04:02:31;16.27;;;11.00;;
13891;SDS011;7016;48.172;8.058;2022-12-07T04:04:58;15.77;;;10.30;;
13891;SDS011;7016;48.172;8.058;2022-12-07T04:07:24;18.23;;;10.80;;
13891;SDS011;7016;48.172;8.058;2022-12-07T04:09:50;16.83;;;10.30;;
13891;SDS011;7016;48.172;8.058;2022-12-07T04:12:16;16.25;;;11.07;;
13891;SDS011;7016;48.172;8.058;2022-12-07T04:14:42;15.15;;;10.23;;
13891;SDS011;7016;48.172;8.058;2022-12-07T04:17:08;14.45;;;9.38;;
13891;SDS011;7016;48.172;8.058;2022-12-07T04:19:34;15.75;;;10.27;;
13891;SDS011;7016;48.172;8.058;2022-12-07T04:22:00;16.20;;;10.38;;
13891;SDS011;7016;48.172;8.058;2022-12-07T04:24:27;15.15;;;9.57;;
13891;SDS011;7016;48.172;8.058;2022-12-07T04:26:53;21.35;;;12.65;;
13891;SDS011;7016;48.172;8.058;2022-12-07T04:29:19;16.58;;;10.80;;
13891;SDS011;7016;48.172;8.058;2022-12-07T04:31:45;15.30;;;10.13;;
13891;SDS011;7016;48.172;8.058;2022-12-07T04:34:11;39.55;;;21.55;;
13891;SDS011;7016;48.172;8.058;2022-12-07T04:36:38;22.00;;;13.32;;
13891;SDS011;7016;48.172;8.058;2022-12-07T04:39:05;19.20;;;11.70;;
13891;SDS011;7016;48.172;8.058;2022-12-07T04:41:32;19.98;;;10.77;;
13891;SDS011;7016;48.172;8.058;2022-12-07T04:44:01;15.73;;;9.98;;
13891;SDS011;7016;48.172;8.058;2022-12-07T04:46:29;16.65;;;10.82;;
13891;SDS011;7016;48.172;8.058;2022-12-07T04:48:56;22.25;;;13.10;;
13891;SDS011;7016;48.172;8.058;2022-12-07T04:51:26;19.48;;;11.90;;
13891;SDS011;7016;48.172;8.058;2022-12-07T04:53:54;18.58;;;11.57;;
13891;SDS011;7016;48.172;8.058;2022-12-07T04:56:21;18.73;;;11.48;;
13891;SDS011;7016;48.172;8.058;2022-12-07T04:58:48;17.17;;;10.65;;
13891;SDS011;7016;48.172;8.058;2022-12-07T05:01:14;15.88;;;10.65;;
13891;SDS011;7016;48.172;8.058;2022-12-07T05:03:42;16.08;;;10.82;;
13891;SDS011;7016;48.172;8.058;2022-12-07T05:06:08;15.38;;;10.13;;
13891;SDS011;7016;48.172;8.058;2022-12-07T05:08:34;16.75;;;10.85;;
13891;SDS011;7016;48.172;8.058;2022-12-07T05:11:00;19.23;;;11.93;;
13891;SDS011;7016;48.172;8.058;2022-12-07T05:13:27;17.88;;;10.38;;
13891;SDS011;7016;48.172;8.058;2022-12-07T05:15:53;16.02;;;10.95;;
13891;SDS011;7016;48.172;8.058;2022-12-07T05:18:19;16.92;;;10.20;;
13891;SDS011;7016;48.172;8.058;2022-12-07T05:20:45;17.05;;;10.30;;
13891;SDS011;7016;48.172;8.058;2022-12-07T05:23:11;17.73;;;10.48;;
13891;SDS011;7016;48.172;8.058;2022-12-07T05:25:37;16.45;;;9.93;;
13891;SDS011;7016;48.172;8.058;2022-12-07T05:28:03;16.90;;;10.20;;
13891;SDS011;7016;48.172;8.058;2022-12-07T05:30:29;15.63;;;10.20;;
13891;SDS011;7016;48.172;8.058;2022-12-07T05:32:56;16.77;;;10.30;;
13891;SDS011;7016;48.172;8.058;2022-12-07T05:35:22;14.15;;;9.45;;
13891;SDS011;7016;48.172;8.058;2022-12-07T05:37:48;15.02;;;10.25;;
13891;SDS011;7016;48.172;8.058;2022-12-07T05:40:14;15.73;;;10.25;;
13891;SDS011;7016;48.172;8.058;2022-12-07T05:42:40;14.13;;;9.25;;
13891;SDS011;7016;48.172;8.058;2022-12-07T05:45:07;14.68;;;9.85;;
13891;SDS011;7016;48.172;8.058;2022-12-07T05:47:34;28.20;;;13.25;;
13891;SDS011;7016;48.172;8.058;2022-12-07T05:50:00;19.85;;;11.85;;
13891;SDS011;7016;48.172;8.058;2022-12-07T05:52:26;18.85;;;11.90;;
13891;SDS011;7016;48.172;8.058;2022-12-07T05:54:52;14.07;;;9.85;;
13891;SDS011;7016;48.172;8.058;2022-12-07T05:57:18;15.48;;;10.40;;
13891;SDS011;7016;48.172;8.058;2022-12-07T05:59:44;15.77;;;9.77;;
13891;SDS011;7016;48.172;8.058;2022-12-07T06:02:11;16.33;;;10.70;;
13891;SDS011;7016;48.172;8.058;2022-12-07T06:04:40;14.48;;;8.65;;
13891;SDS011;7016;48.172;8.058;2022-12-07T06:07:07;15.35;;;9.82;;
13891;SDS011;7016;48.172;8.058;2022-12-07T06:09:34;14.73;;;9.70;;
13891;SDS011;7016;48.172;8.058;2022-12-07T06:12:00;19.17;;;10.93;;
13891;SDS011;7016;48.172;8.058;2022-12-07T06:14:44;18.05;;;10.35;;
13891;SDS011;7016;48.172;8.058;2022-12-07T06:17:10;16.05;;;9.88;;
13891;SDS011;7016;48.172;8.058;2022-12-07T06:19:37;13.80;;;9.40;;
13891;SDS011;7016;48.172;8.058;2022-12-07T06:22:03;13.20;;;8.30;;
13891;SDS011;7016;48.172;8.058;2022-12-07T06:24:29;14.13;;;9.15;;
13891;SDS011;7016;48.172;8.058;2022-12-07T06:26:56;16.15;;;10.20;;
13891;SDS011;7016;48.172;8.058;2022-12-07T06:29:22;16.33;;;10.57;;
13891;SDS011;7016;48.172;8.058;2022-12-07T06:31:48;18.35;;;11.88;;
13891;SDS011;7016;48.172;8.058;2022-12-07T06:34:16;16.00;;;10.93;;
13891;SDS011;7016;48.172;8.058;2022-12-07T06:36:43;11.98;;;8.60;;
13891;SDS011;7016;48.172;8.058;2022-12-07T06:39:09;11.73;;;8.40;;
13891;SDS011;7016;48.172;8.058;2022-12-07T06:41:36;12.60;;;8.38;;
13891;SDS011;7016;48.172;8.058;2022-12-07T06:44:03;11.88;;;8.23;;
13891;SDS011;7016;48.172;8.058;2022-12-07T06:46:29;15.60;;;9.00;;
13891;SDS011;7016;48.172;8.058;2022-12-07T06:48:55;12.50;;;7.85;;
13891;SDS011;7016;48.172;8.058;2022-12-07T06:51:21;24.17;;;13.75;;
13891;SDS011;7016;48.172;8.058;2022-12-07T06:53:47;18.52;;;11.85;;
13891;SDS011;7016;48.172;8.058;2022-12-07T06:56:13;16.58;;;11.27;;
13891;SDS011;7016;48.172;8.058;2022-12-07T06:58:39;13.20;;;9.02;;
13891;SDS011;7016;48.172;8.058;2022-12-07T07:01:13;13.68;;;8.68;;
13891;SDS011;7016;48.172;8.058;2022-12-07T07:03:40;11.75;;;8.30;;
13891;SDS011;7016;48.172;8.058;2022-12-07T07:06:06;15.38;;;9.18;;
13891;SDS011;7016;48.172;8.058;2022-12-07T07:08:35;13.65;;;9.15;;
13891;SDS011;7016;48.172;8.058;2022-12-07T07:11:01;15.60;;;9.63;;
13891;SDS011;7016;48.172;8.058;2022-12-07T07:13:27;15.85;;;10.57;;
13891;SDS011;7016;48.172;8.058;2022-12-07T07:15:53;17.63;;;11.20;;
13891;SDS011;7016;48.172;8.058;2022-12-07T07:18:19;16.38;;;10.63;;
13891;SDS011;7016;48.172;8.058;2022-12-07T07:20:44;16.90;;;10.95;;
13891;SDS011;7016;48.172;8.058;2022-12-07T07:23:10;14.30;;;10.00;;
13891;SDS011;7016;48.172;8.058;2022-12-07T07:25:36;14.05;;;9.68;;
13891;SDS011;7016;48.172;8.058;2022-12-07T07:28:02;14.82;;;10.10;;
13891;SDS011;7016;48.172;8.058;2022-12-07T07:30:28;17.27;;;10.25;;
13891;SDS011;7016;48.172;8.058;2022-12-07T07:32:57;14.85;;;9.93;;
13891;SDS011;7016;48.172;8.058;2022-12-07T07:35:25;16.52;;;10.32;;
13891;SDS011;7016;48.172;8.058;2022-12-07T07:37:52;15.35;;;9.95;;
13891;SDS011;7016;48.172;8.058;2022-12-07T07:40:18;15.55;;;10.00;;
13891;SDS011;7016;48.172;8.058;2022-12-07T07:42:43;20.02;;;11.85;;
13891;SDS011;7016;48.172;8.058;2022-12-07T07:45:11;34.85;;;16.23;;
13891;SDS011;7016;48.172;8.058;2022-12-07T07:47:37;23.38;;;13.48;;
13891;SDS011;7016;48.172;8.058;2022-12-07T07:50:03;16.05;;;10.63;;
13891;SDS011;7016;48.172;8.058;2022-12-07T07:52:29;15.50;;;10.00;;
13891;SDS011;7016;48.172;8.058;2022-12-07T07:54:56;17.25;;;10.98;;
13891;SDS011;7016;48.172;8.058;2022-12-07T07:57:22;18.38;;;11.40;;
13891;SDS011;7016;48.172;8.058;2022-12-07T07:59:47;17.30;;;11.68;;
13891;SDS011;7016;48.172;8.058;2022-12-07T08:02:14;14.73;;;10.10;;
13891;SDS011;7016;48.172;8.058;2022-12-07T08:04:41;13.57;;;9.27;;
13891;SDS011;7016;48.172;8.058;2022-12-07T08:07:07;13.80;;;9.38;;
13891;SDS011;7016;48.172;8.058;2022-12-07T08:09:33;12.02;;;8.25;;
13891;SDS011;7016;48.172;8.058;2022-12-07T08:11:59;13.02;;;7.85;;
13891;SDS011;7016;48.172;8.058;2022-12-07T08:14:25;12.85;;;8.60;;
13891;SDS011;7016;48.172;8.058;2022-12-07T08:16:52;13.90;;;9.32;;
13891;SDS011;7016;48.172;8.058;2022-12-07T08:19:18;14.88;;;9.32;;
13891;SDS011;7016;48.172;8.058;2022-12-07T08:21:44;16.25;;;10.38;;
13891;SDS011;7016;48.172;8.058;2022-12-07T08:24:10;13.90;;;9.50;;
13891;SDS011;7016;48.172;8.058;2022-12-07T08:26:35;14.02;;;9.27;;
13891;SDS011;7016;48.172;8.058;2022-12-07T08:29:01;14.93;;;9.50;;
13891;SDS011;7016;48.172;8.058;2022-12-07T08:31:27;13.10;;;8.88;;
13891;SDS011;7016;48.172;8.058;2022-12-07T08:33:53;13.02;;;9.00;;
13891;SDS011;7016;48.172;8.058;2022-12-07T08:36:19;16.88;;;9.85;;
13891;SDS011;7016;48.172;8.058;2022-12-07T08:38:46;12.50;;;8.52;;
13891;SDS011;7016;48.172;8.058;2022-12-07T08:41:12;12.15;;;8.48;;
13891;SDS011;7016;48.172;8.058;2022-12-07T08:43:38;12.13;;;7.97;;
13891;SDS011;7016;48.172;8.058;2022-12-07T08:48:29;14.32;;;9.50;;
13891;SDS011;7016;48.172;8.058;2022-12-07T08:50:56;14.60;;;9.52;;
13891;SDS011;7016;48.172;8.058;2022-12-07T08:53:23;18.70;;;12.30;;
13891;SDS011;7016;48.172;8.058;2022-12-07T08:55:48;14.80;;;9.90;;
13891;SDS011;7016;48.172;8.058;2022-12-07T08:58:15;14.95;;;10.00;;
13891;SDS011;7016;48.172;8.058;2022-12-07T09:00:41;13.82;;;9.23;;
13891;SDS011;7016;48.172;8.058;2022-12-07T09:03:06;17.52;;;10.55;;
13891;SDS011;7016;48.172;8.058;2022-12-07T09:05:32;19.40;;;11.85;;
13891;SDS011;7016;48.172;8.058;2022-12-07T09:07:59;19.70;;;12.15;;
13891;SDS011;7016;48.172;8.058;2022-12-07T09:10:27;15.85;;;10.07;;
13891;SDS011;7016;48.172;8.058;2022-12-07T09:12:53;15.25;;;9.50;;
13891;SDS011;7016;48.172;8.058;2022-12-07T09:15:19;16.92;;;10.52;;
13891;SDS011;7016;48.172;8.058;2022-12-07T09:17:45;15.40;;;9.43;;
13891;SDS011;7016;48.172;8.058;2022-12-07T09:20:10;13.50;;;8.93;;
13891;SDS011;7016;48.172;8.058;2022-12-07T09:22:37;16.90;;;9.77;;
13891;SDS011;7016;48.172;8.058;2022-12-07T09:25:03;15.20;;;9.32;;
13891;SDS011;7016;48.172;8.058;2022-12-07T09:27:29;15.25;;;9.85;;
13891;SDS011;7016;48.172;8.058;2022-12-07T09:29:55;19.38;;;11.43;;
13891;SDS011;7016;48.172;8.058;2022-12-07T09:32:21;16.02;;;9.63;;
13891;SDS011;7016;48.172;8.058;2022-12-07T09:34:47;14.98;;;9.63;;
13891;SDS011;7016;48.172;8.058;2022-12-07T09:37:13;15.95;;;9.80;;
13891;SDS011;7016;48.172;8.058;2022-12-07T09:39:39;15.40;;;9.27;;
13891;SDS011;7016;48.172;8.058;2022-12-07T09:42:06;13.85;;;8.50;;
13891;SDS011;7016;48.172;8.058;2022-12-07T09:44:34;12.82;;;7.95;;
13891;SDS011;7016;48.172;8.058;2022-12-07T09:47:00;10.77;;;7.38;;
13891;SDS011;7016;48.172;8.058;2022-12-07T09:49:28;12.57;;;8.27;;
13891;SDS011;7016;48.172;8.058;2022-12-07T09:54:39;13.50;;;8.30;;
13891;SDS011;7016;48.172;8.058;2022-12-07T09:57:10;10.68;;;7.57;;
13891;SDS011;7016;48.172;8.058;2022-12-07T09:59:37;10.45;;;7.10;;
13891;SDS011;7016;48.172;8.058;2022-12-07T10:05:00;9.85;;;7.43;;
13891;SDS011;7016;48.172;8.058;2022-12-07T10:07:29;11.82;;;7.75;;
13891;SDS011;7016;48.172;8.058;2022-12-07T10:09:55;11.20;;;7.38;;
13891;SDS011;7016;48.172;8.058;2022-12-07T10:12:20;10.65;;;7.13;;
13891;SDS011;7016;48.172;8.058;2022-12-07T10:14:57;10.88;;;7.05;;
13891;SDS011;7016;48.172;8.058;2022-12-07T10:20:29;11.90;;;7.72;;
13891;SDS011;7016;48.172;8.058;2022-12-07T10:22:55;14.02;;;7.53;;
13891;SDS011;7016;48.172;8.058;2022-12-07T10:30:32;9.40;;;6.38;;
13891;SDS011;7016;48.172;8.058;2022-12-07T10:32:59;8.45;;;6.10;;
13891;SDS011;7016;48.172;8.058;2022-12-07T10:35:26;8.05;;;5.63;;
13891;SDS011;7016;48.172;8.058;2022-12-07T10:37:54;9.68;;;6.57;;
13891;SDS011;7016;48.172;8.058;2022-12-07T10:40:31;9.18;;;6.63;;
13891;SDS011;7016;48.172;8.058;2022-12-07T10:43:05;9.63;;;6.93;;
13891;SDS011;7016;48.172;8.058;2022-12-07T10:53:38;11.27;;;7.25;;
13891;SDS011;7016;48.172;8.058;2022-12-07T11:10:29;6.63;;;4.30;;
13891;SDS011;7016;48.172;8.058;2022-12-07T11:16:16;8.50;;;5.80;;
13891;SDS011;7016;48.172;8.058;2022-12-07T11:30:30;5.78;;;4.25;;
13891;SDS011;7016;48.172;8.058;2022-12-07T11:39:03;6.65;;;4.93;;
13891;SDS011;7016;48.172;8.058;2022-12-07T11:41:38;5.72;;;4.30;;
13891;SDS011;7016;48.172;8.058;2022-12-07T11:46:48;8.48;;;4.47;;
13891;SDS011;7016;48.172;8.058;2022-12-07T11:49:27;5.28;;;3.78;;
13891;SDS011;7016;48.172;8.058;2022-12-07T11:52:02;5.53;;;3.55;;
13891;SDS011;7016;48.172;8.058;2022-12-07T11:54:30;5.47;;;3.92;;
13891;SDS011;7016;48.172;8.058;2022-12-07T11:57:02;5.22;;;3.75;;
13891;SDS011;7016;48.172;8.058;2022-12-07T11:59:36;7.55;;;4.32;;
13891;SDS011;7016;48.172;8.058;2022-12-07T12:04:54;4.78;;;3.42;;
13891;SDS011;7016;48.172;8.058;2022-12-07T12:07:24;5.05;;;3.42;;
13891;SDS011;7016;48.172;8.058;2022-12-07T12:15:13;4.65;;;3.22;;
13891;SDS011;7016;48.172;8.058;2022-12-07T12:26:02;3.00;;;2.67;;
13891;SDS011;7016;48.172;8.058;2022-12-07T12:28:41;4.85;;;2.63;;
13891;SDS011;7016;48.172;8.058;2022-12-07T12:33:53;3.78;;;2.58;;
13891;SDS011;7016;48.172;8.058;2022-12-07T12:36:25;4.13;;;3.17;;
13891;SDS011;7016;48.172;8.058;2022-12-07T12:50:11;3.78;;;2.88;;
13891;SDS011;7016;48.172;8.058;2022-12-07T12:52:48;3.47;;;2.50;;
13891;SDS011;7016;48.172;8.058;2022-12-07T13:00:43;3.95;;;2.97;;
13891;SDS011;7016;48.172;8.058;2022-12-07T13:03:26;6.43;;;3.30;;
13891;SDS011;7016;48.172;8.058;2022-12-07T13:08:56;4.25;;;3.10;;
13891;SDS011;7016;48.172;8.058;2022-12-07T13:11:41;4.18;;;3.00;;
13891;SDS011;7016;48.172;8.058;2022-12-07T13:20:03;3.63;;;2.92;;
13891;SDS011;7016;48.172;8.058;2022-12-07T13:30:43;4.32;;;3.05;;
13891;SDS011;7016;48.172;8.058;2022-12-07T13:33:12;3.75;;;2.58;;
13891;SDS011;7016;48.172;8.058;2022-12-07T13:35:38;4.05;;;3.05;;
13891;SDS011;7016;48.172;8.058;2022-12-07T13:38:05;4.18;;;2.97;;
13891;SDS011;7016;48.172;8.058;2022-12-07T13:40:58;3.95;;;2.97;;
13891;SDS011;7016;48.172;8.058;2022-12-07T13:43:29;4.78;;;3.20;;
13891;SDS011;7016;48.172;8.058;2022-12-07T13:45:56;5.57;;;3.55;;
13891;SDS011;7016;48.172;8.058;2022-12-07T13:48:33;5.60;;;3.58;;
13891;SDS011;7016;48.172;8.058;2022-12-07T13:51:16;4.90;;;3.42;;
13891;SDS011;7016;48.172;8.058;2022-12-07T13:53:59;5.97;;;3.70;;
13891;SDS011;7016;48.172;8.058;2022-12-07T13:56:28;5.13;;;3.75;;
13891;SDS011;7016;48.172;8.058;2022-12-07T13:58:58;4.95;;;3.80;;
13891;SDS011;7016;48.172;8.058;2022-12-07T14:01:25;5.45;;;3.90;;
13891;SDS011;7016;48.172;8.058;2022-12-07T14:03:50;4.93;;;3.42;;
13891;SDS011;7016;48.172;8.058;2022-12-07T14:06:22;6.03;;;4.20;;
13891;SDS011;7016;48.172;8.058;2022-12-07T14:08:50;5.15;;;3.50;;
13891;SDS011;7016;48.172;8.058;2022-12-07T14:11:30;4.60;;;3.20;;
13891;SDS011;7016;48.172;8.058;2022-12-07T14:13:58;4.55;;;3.33;;
13891;SDS011;7016;48.172;8.058;2022-12-07T14:16:27;8.25;;;4.00;;
13891;SDS011;7016;48.172;8.058;2022-12-07T14:18:55;6.95;;;4.43;;
13891;SDS011;7016;48.172;8.058;2022-12-07T14:21:24;9.30;;;5.30;;
13891;SDS011;7016;48.172;8.058;2022-12-07T14:26:30;5.00;;;3.70;;
13891;SDS011;7016;48.172;8.058;2022-12-07T14:29:18;5.50;;;4.00;;
13891;SDS011;7016;48.172;8.058;2022-12-07T14:31:45;6.10;;;3.17;;
13891;SDS011;7016;48.172;8.058;2022-12-07T14:34:14;6.43;;;3.33;;
13891;SDS011;7016;48.172;8.058;2022-12-07T14:36:39;8.40;;;3.90;;
13891;SDS011;7016;48.172;8.058;2022-12-07T14:39:05;5.38;;;3.42;;
13891;SDS011;7016;48.172;8.058;2022-12-07T14:41:31;5.90;;;3.30;;
13891;SDS011;7016;48.172;8.058;2022-12-07T14:44:15;4.03;;;3.00;;
13891;SDS011;7016;48.172;8.058;2022-12-07T14:46:42;4.22;;;3.00;;
13891;SDS011;7016;48.172;8.058;2022-12-07T14:49:07;4.28;;;2.97;;
13891;SDS011;7016;48.172;8.058;2022-12-07T14:51:33;4.75;;;3.10;;
13891;SDS011;7016;48.172;8.058;2022-12-07T14:54:02;5.22;;;2.92;;
13891;SDS011;7016;48.172;8.058;2022-12-07T14:56:31;3.50;;;2.80;;
13891;SDS011;7016;48.172;8.058;2022-12-07T14:58:57;4.53;;;2.65;;
13891;SDS011;7016;48.172;8.058;2022-12-07T15:01:22;4.63;;;2.33;;
13891;SDS011;7016;48.172;8.058;2022-12-07T15:03:48;3.45;;;2.65;;
13891;SDS011;7016;48.172;8.058;2022-12-07T15:06:15;4.80;;;2.75;;
13891;SDS011;7016;48.172;8.058;2022-12-07T15:08:43;5.75;;;2.60;;
13891;SDS011;7016;48.172;8.058;2022-12-07T15:11:13;2.97;;;2.50;;
13891;SDS011;7016;48.172;8.058;2022-12-07T15:13:40;3.60;;;2.63;;
13891;SDS011;7016;48.172;8.058;2022-12-07T15:16:24;3.38;;;2.67;;
13891;SDS011;7016;48.172;8.058;2022-12-07T15:18:50;3.90;;;2.50;;
13891;SDS011;7016;48.172;8.058;2022-12-07T15:21:16;5.25;;;3.13;;
13891;SDS011;7016;48.172;8.058;2022-12-07T15:23:42;5.90;;;2.97;;
13891;SDS011;7016;48.172;8.058;2022-12-07T15:26:09;5.10;;;3.13;;
13891;SDS011;7016;48.172;8.058;2022-12-07T15:28:35;4.93;;;3.30;;
13891;SDS011;7016;48.172;8.058;2022-12-07T15:31:01;6.60;;;4.05;;
13891;SDS011;7016;48.172;8.058;2022-12-07T15:33:27;4.95;;;3.33;;
13891;SDS011;7016;48.172;8.058;2022-12-07T15:35:53;7.07;;;3.67;;
13891;SDS011;7016;48.172;8.058;2022-12-07T15:38:18;4.68;;;3.50;;
13891;SDS011;7016;48.172;8.058;2022-12-07T15:40:48;5.63;;;4.10;;
13891;SDS011;7016;48.172;8.058;2022-12-07T15:43:13;4.80;;;3.20;;
13891;SDS011;7016;48.172;8.058;2022-12-07T15:45:58;5.40;;;3.90;;
13891;SDS011;7016;48.172;8.058;2022-12-07T15:48:24;8.73;;;4.10;;
13891;SDS011;7016;48.172;8.058;2022-12-07T15:50:50;8.25;;;3.78;;
13891;SDS011;7016;48.172;8.058;2022-12-07T15:53:15;10.23;;;4.55;;
13891;SDS011;7016;48.172;8.058;2022-12-07T15:55:41;8.10;;;4.95;;
13891;SDS011;7016;48.172;8.058;2022-12-07T15:58:07;6.97;;;4.93;;
13891;SDS011;7016;48.172;8.058;2022-12-07T16:00:33;11.05;;;5.80;;
13891;SDS011;7016;48.172;8.058;2022-12-07T16:02:59;13.27;;;6.55;;
13891;SDS011;7016;48.172;8.058;2022-12-07T16:05:25;8.20;;;5.15;;
13891;SDS011;7016;48.172;8.058;2022-12-07T16:07:50;6.32;;;4.47;;
13891;SDS011;7016;48.172;8.058;2022-12-07T16:10:16;9.73;;;6.40;;
13891;SDS011;7016;48.172;8.058;2022-12-07T16:12:42;12.38;;;6.38;;
13891;SDS011;7016;48.172;8.058;2022-12-07T16:15:08;12.55;;;6.90;;
13891;SDS011;7016;48.172;8.058;2022-12-07T16:17:34;11.93;;;7.10;;
13891;SDS011;7016;48.172;8.058;2022-12-07T16:19:59;25.65;;;13.07;;
13891;SDS011;7016;48.172;8.058;2022-12-07T16:22:25;34.05;;;16.15;;
13891;SDS011;7016;48.172;8.058;2022-12-07T16:24:51;13.75;;;7.65;;
13891;SDS011;7016;48.172;8.058;2022-12-07T16:27:16;13.50;;;6.35;;
13891;SDS011;7016;48.172;8.058;2022-12-07T16:29:42;28.08;;;13.85;;
13891;SDS011;7016;48.172;8.058;2022-12-07T16:32:08;31.60;;;16.38;;
13891;SDS011;7016;48.172;8.058;2022-12-07T16:34:33;16.83;;;9.13;;
13891;SDS011;7016;48.172;8.058;2022-12-07T16:36:59;9.93;;;6.32;;
13891;SDS011;7016;48.172;8.058;2022-12-07T16:39:25;8.38;;;6.00;;
13891;SDS011;7016;48.172;8.058;2022-12-07T16:41:51;13.40;;;8.88;;
13891;SDS011;7016;48.172;8.058;2022-12-07T16:44:17;7.90;;;5.13;;
13891;SDS011;7016;48.172;8.058;2022-12-07T16:46:43;7.95;;;5.13;;
13891;SDS011;7016;48.172;8.058;2022-12-07T16:49:12;12.50;;;6.80;;
13891;SDS011;7016;48.172;8.058;2022-12-07T16:51:39;11.57;;;6.72;;
13891;SDS011;7016;48.172;8.058;2022-12-07T16:54:06;10.98;;;6.50;;
13891;SDS011;7016;48.172;8.058;2022-12-07T16:56:33;10.80;;;5.72;;
13891;SDS011;7016;48.172;8.058;2022-12-07T16:58:59;9.65;;;5.80;;
13891;SDS011;7016;48.172;8.058;2022-12-07T17:01:25;11.25;;;7.03;;
13891;SDS011;7016;48.172;8.058;2022-12-07T17:03:54;8.40;;;5.18;;
13891;SDS011;7016;48.172;8.058;2022-12-07T17:06:22;11.93;;;6.22;;
13891;SDS011;7016;48.172;8.058;2022-12-07T17:08:50;13.38;;;6.47;;
13891;SDS011;7016;48.172;8.058;2022-12-07T17:11:21;12.02;;;5.95;;
13891;SDS011;7016;48.172;8.058;2022-12-07T17:13:49;9.57;;;6.07;;
13891;SDS011;7016;48.172;8.058;2022-12-07T17:16:34;9.57;;;5.78;;
13891;SDS011;7016;48.172;8.058;2022-12-07T17:19:03;9.80;;;5.32;;
13891;SDS011;7016;48.172;8.058;2022-12-07T17:21:30;9.73;;;6.32;;
13891;SDS011;7016;48.172;8.058;2022-12-07T17:24:00;8.95;;;5.90;;
13891;SDS011;7016;48.172;8.058;2022-12-07T17:26:27;13.15;;;7.88;;
13891;SDS011;7016;48.172;8.058;2022-12-07T17:28:54;13.60;;;8.10;;